This is the latest recevied weather packets stored in our database for station/object GW1561. If no packets are shown the sender has not sent any weather packets the latest 10 day(s).
| Time | Temp. | Humidity | Pressure | Rain* | Wind** | Luminosity | Snow |
|---|---|---|---|---|---|---|---|
| 1777340547 | 21.11° C | 42% | 984.7 hPa | 0 mm | - | - | - |
| 1777340207 | 21.67° C | 42% | 984.7 hPa | 0 mm | - | - | - |
| 1777337298 | 22.22° C | 43% | 984 hPa | 0 mm | - | - | - |
| 1777335890 | 22.22° C | 42% | 984.4 hPa | 0 mm | - | - | - |
| 1777332627 | 21.11° C | 53% | 984 hPa | 0 mm | - | - | - |
| 1777330491 | 23.33° C | 50% | 983.7 hPa | 0 mm | - | - | - |
| 1777326861 | 26.67° C | 39% | 984 hPa | 0 mm | - | - | - |
| 1777326171 | 26.67° C | 32% | 984 hPa | 0 mm | - | - | - |
| 1777322919 | 27.22° C | 32% | 984 hPa | 0 mm | - | - | - |
| 1777320052 | 27.78° C | 35% | 984.7 hPa | 0 mm | - | - | - |
| 1777318247 | 26.67° C | 35% | 985.4 hPa | 0 mm | - | - | - |
| 1777314287 | 27.22° C | 41% | 986.4 hPa | 0 mm | - | - | - |
| 1777313213 | 26.11° C | 41% | 986.4 hPa | 0 mm | - | - | - |
| 1777307091 | 23.33° C | 46% | 988.4 hPa | 0 mm | - | - | - |
| 1777305250 | 21.67° C | 52% | 988.4 hPa | 0 mm | - | - | - |
| 1777303133 | 21.11° C | 52% | 988.4 hPa | 0 mm | - | - | - |
| 1777302731 | 20.56° C | 50% | 988.8 hPa | 0 mm | - | - | - |
| 1777301295 | 19.44° C | 55% | 988.8 hPa | 0 mm | - | - | - |
| 1777300948 | 18.89° C | 56% | 988.8 hPa | 0 mm | - | - | - |
| 1777300590 | 18.89° C | 57% | 988.8 hPa | 0 mm | - | - | - |
| 1777297734 | 15° C | 70% | 989.5 hPa | 0 mm | - | - | - |
| 1777297359 | 14.44° C | 71% | 989.5 hPa | 0 mm | - | - | - |
| 1777296286 | 13.33° C | 75% | 989.5 hPa | 0 mm | - | - | - |
| 1777295563 | 12.22° C | 82% | 989.5 hPa | 0 mm | - | - | - |
| 1777291238 | 6.11° C | 99% | 989.8 hPa | 0 mm | - | - | - |
* Rain since midnight (hover to see other rain measurements)
** Current wind speed in m/s (hover to see current wind gust speed)